createdAt,value
2022-12-24T00:02:23.349Z,100.00
2022-12-24T00:05:26.077Z,99.41
2022-12-24T00:08:28.590Z,100.00
2022-12-24T00:11:31.089Z,99.76
2022-12-24T00:14:33.555Z,100.00
2022-12-24T00:17:36.016Z,100.00
2022-12-24T00:20:39.306Z,100.00
2022-12-24T00:23:41.968Z,100.00
2022-12-24T00:26:44.454Z,100.00
2022-12-24T00:29:47.007Z,100.00
2022-12-24T00:32:49.625Z,100.00
2022-12-24T00:35:53.050Z,100.00
2022-12-24T00:38:55.874Z,100.00
2022-12-24T00:41:58.401Z,100.00
2022-12-24T00:45:01.030Z,100.00
2022-12-24T00:48:03.757Z,100.00
2022-12-24T00:51:07.562Z,100.00
2022-12-24T00:54:10.078Z,100.00
2022-12-24T00:57:12.517Z,100.00
2022-12-24T01:00:17.909Z,100.00
2022-12-24T01:03:20.749Z,100.00
2022-12-24T01:06:23.378Z,100.00
2022-12-24T01:09:25.894Z,100.00
2022-12-24T01:12:28.671Z,100.00
2022-12-24T01:15:31.226Z,100.00
2022-12-24T01:18:33.818Z,100.00
2022-12-24T01:21:36.365Z,100.00
2022-12-24T01:24:41.520Z,100.00
2022-12-24T01:27:44.083Z,100.00
2022-12-24T01:30:48.027Z,100.00
2022-12-24T01:33:50.570Z,100.00
2022-12-24T01:36:52.991Z,100.00
2022-12-24T01:40:18.030Z,100.00
2022-12-24T01:43:25.231Z,100.00
2022-12-24T01:46:30.413Z,100.00
2022-12-24T01:49:33.484Z,100.00
2022-12-24T01:52:36.254Z,100.00
2022-12-24T01:55:40.559Z,100.00
2022-12-24T01:58:46.968Z,100.00
2022-12-24T02:01:50.751Z,100.00
2022-12-24T02:04:59.140Z,100.00
2022-12-24T02:08:03.225Z,100.00
2022-12-24T02:11:14.269Z,100.00
2022-12-24T02:14:17.113Z,100.00
2022-12-24T02:17:38.070Z,100.00
2022-12-24T02:21:06.337Z,100.00
2022-12-24T02:24:08.835Z,100.00
2022-12-24T02:27:48.608Z,100.00
2022-12-24T02:30:55.656Z,100.00
2022-12-24T02:34:04.279Z,100.00
2022-12-24T02:37:12.743Z,100.00
2022-12-24T02:40:23.821Z,100.00
2022-12-24T02:43:36.222Z,100.00
2022-12-24T02:46:38.799Z,100.00
2022-12-24T02:49:44.636Z,100.00
2022-12-24T02:52:48.067Z,100.00
2022-12-24T02:55:56.351Z,100.00
2022-12-24T02:59:07.982Z,100.00
2022-12-24T03:02:24.654Z,100.00
2022-12-24T03:05:44.740Z,100.00
2022-12-24T03:08:59.471Z,100.00
2022-12-24T03:12:06.699Z,100.00
2022-12-24T03:15:12.418Z,100.00
2022-12-24T03:18:17.800Z,100.00
2022-12-24T03:21:33.420Z,100.00
2022-12-24T03:24:36.413Z,100.00
2022-12-24T03:27:39.625Z,100.00
2022-12-24T03:30:44.463Z,100.00
2022-12-24T03:33:47.021Z,100.00
2022-12-24T03:36:49.800Z,100.00
2022-12-24T03:39:52.680Z,100.00
2022-12-24T03:42:55.246Z,100.00
2022-12-24T03:45:57.996Z,100.00
2022-12-24T03:49:00.611Z,100.00
2022-12-24T03:52:03.283Z,100.00
2022-12-24T03:55:05.998Z,100.00
2022-12-24T03:58:09.198Z,100.00
2022-12-24T04:01:15.857Z,100.00
2022-12-24T04:04:18.463Z,100.00
2022-12-24T04:07:20.921Z,100.00
2022-12-24T04:10:25.030Z,100.00
2022-12-24T04:13:27.841Z,100.00
2022-12-24T04:16:30.382Z,100.00
2022-12-24T04:19:32.963Z,100.00
2022-12-24T04:22:35.470Z,100.00
2022-12-24T04:25:37.948Z,100.00
2022-12-24T04:28:41.626Z,100.00
2022-12-24T04:31:44.340Z,100.00
2022-12-24T04:34:46.827Z,100.00
2022-12-24T04:37:49.299Z,100.00
2022-12-24T04:41:23.744Z,100.00
2022-12-24T04:44:27.108Z,100.00
2022-12-24T04:47:29.590Z,100.00
2022-12-24T04:50:34.662Z,100.00
2022-12-24T04:53:37.977Z,100.00
2022-12-24T04:56:40.455Z,100.00
2022-12-24T04:59:42.871Z,100.00
2022-12-24T05:02:45.487Z,100.00
2022-12-24T05:05:48.167Z,100.00
2022-12-24T05:08:50.635Z,99.88
2022-12-24T05:11:53.360Z,99.57
2022-12-24T05:14:55.875Z,99.68
2022-12-24T05:17:58.409Z,99.37
2022-12-24T05:21:08.858Z,99.37
2022-12-24T05:24:30.658Z,99.41
2022-12-24T05:27:33.081Z,99.30
2022-12-24T05:30:35.910Z,99.10
2022-12-24T05:33:38.541Z,99.08
2022-12-24T05:36:41.300Z,99.61
2022-12-24T05:39:43.974Z,99.44
2022-12-24T05:42:46.515Z,99.84
2022-12-24T05:45:48.961Z,99.89
2022-12-24T05:48:52.580Z,100.00
2022-12-24T05:51:56.364Z,100.00
2022-12-24T05:54:58.838Z,100.00
2022-12-24T05:58:01.413Z,100.00
2022-12-24T06:01:04.818Z,100.00
2022-12-24T06:04:07.427Z,100.00
2022-12-24T06:07:09.960Z,100.00
2022-12-24T06:10:12.497Z,100.00
2022-12-24T06:13:16.877Z,100.00
2022-12-24T06:16:20.425Z,100.00
2022-12-24T06:19:23.996Z,99.96
2022-12-24T06:22:26.585Z,100.00
2022-12-24T06:25:29.069Z,99.52
2022-12-24T06:28:33.768Z,99.95
2022-12-24T06:31:36.390Z,99.95
2022-12-24T06:34:38.823Z,100.00
2022-12-24T06:37:41.360Z,99.58
2022-12-24T06:40:45.856Z,99.61
2022-12-24T06:43:50.295Z,100.00
2022-12-24T06:46:52.797Z,100.00
2022-12-24T06:49:55.361Z,99.82
2022-12-24T06:52:58.005Z,100.00
2022-12-24T06:56:08.494Z,99.76
2022-12-24T06:59:11.373Z,99.58
2022-12-24T07:02:14.274Z,99.59
2022-12-24T07:05:16.837Z,99.93
2022-12-24T07:08:19.516Z,99.82
2022-12-24T07:11:24.437Z,99.35
2022-12-24T07:14:26.923Z,99.37
2022-12-24T07:17:29.539Z,99.21
2022-12-24T07:20:36.501Z,98.99
2022-12-24T07:23:39.595Z,98.81
2022-12-24T07:26:42.064Z,99.29
2022-12-24T07:29:44.939Z,99.93
2022-12-24T07:32:47.535Z,100.00
2022-12-24T07:35:55.746Z,100.00
2022-12-24T07:38:58.518Z,100.00
2022-12-24T07:42:01.202Z,100.00
2022-12-24T07:45:03.942Z,100.00
2022-12-24T07:48:06.482Z,100.00
2022-12-24T07:51:09.358Z,99.74
2022-12-24T07:54:11.815Z,97.88
2022-12-24T07:57:14.333Z,97.03
2022-12-24T08:00:18.968Z,97.59
2022-12-24T08:03:21.585Z,97.99
2022-12-24T08:06:24.555Z,98.53
2022-12-24T08:09:27.193Z,98.31
2022-12-24T08:12:29.692Z,98.40
2022-12-24T08:15:32.565Z,98.39
2022-12-24T08:18:35.150Z,98.42
2022-12-24T08:21:37.867Z,98.33
2022-12-24T08:24:40.326Z,98.34
2022-12-24T08:27:42.840Z,98.53
2022-12-24T08:30:53.087Z,98.02
2022-12-24T08:33:55.741Z,99.00
2022-12-24T08:36:58.218Z,98.69
2022-12-24T08:40:00.762Z,98.47
2022-12-24T08:43:03.381Z,98.03
2022-12-24T08:46:06.507Z,98.02
2022-12-24T08:49:09.261Z,97.09
2022-12-24T08:52:11.755Z,97.12
2022-12-24T08:55:14.202Z,96.28
2022-12-24T08:58:16.679Z,95.72
2022-12-24T09:01:21.159Z,94.88
2022-12-24T09:04:23.765Z,95.23
2022-12-24T09:07:26.172Z,95.40
2022-12-24T09:10:29.574Z,95.93
2022-12-24T09:13:32.251Z,96.69
2022-12-24T09:16:34.904Z,96.66
2022-12-24T09:19:37.452Z,96.64
2022-12-24T09:22:40.388Z,96.63
2022-12-24T09:25:43.328Z,96.87
2022-12-24T09:28:46.392Z,95.68
2022-12-24T09:31:50.149Z,96.26
2022-12-24T09:34:52.666Z,96.69
2022-12-24T09:38:04.105Z,96.11
2022-12-24T09:41:41.866Z,95.70
2022-12-24T09:44:50.991Z,95.19
2022-12-24T09:47:56.996Z,95.96
2022-12-24T09:51:04.678Z,95.55
2022-12-24T09:54:12.268Z,95.24
2022-12-24T09:57:20.784Z,94.65
2022-12-24T10:00:27.144Z,94.68
2022-12-24T10:03:29.792Z,94.72
2022-12-24T10:06:45.100Z,94.71
2022-12-24T10:09:57.076Z,93.88
2022-12-24T10:13:21.054Z,94.63
2022-12-24T10:16:29.143Z,92.73
2022-12-24T10:20:01.415Z,91.63
2022-12-24T10:23:08.162Z,91.24
2022-12-24T10:26:46.744Z,90.54
2022-12-24T10:30:01.660Z,90.93
2022-12-24T10:33:27.693Z,90.03
2022-12-24T10:36:31.336Z,90.59
2022-12-24T10:39:33.813Z,89.42
2022-12-24T10:42:50.154Z,88.14
2022-12-24T10:46:03.757Z,89.92
2022-12-24T10:49:11.513Z,89.61
2022-12-24T10:52:18.191Z,89.20
2022-12-24T10:55:20.498Z,90.38
2022-12-24T10:58:22.989Z,92.78
2022-12-24T11:01:47.825Z,92.28
2022-12-24T11:04:50.592Z,92.18
2022-12-24T11:08:03.459Z,91.46
2022-12-24T11:11:08.905Z,92.31
2022-12-24T11:14:14.911Z,90.42
2022-12-24T11:17:23.798Z,89.53
2022-12-24T11:20:31.668Z,90.30
2022-12-24T11:23:34.627Z,91.03
2022-12-24T11:26:37.061Z,89.77
2022-12-24T11:29:39.521Z,91.48
2022-12-24T11:33:01.064Z,92.04
2022-12-24T11:36:07.338Z,93.01
2022-12-24T11:39:18.933Z,93.03
2022-12-24T11:42:25.699Z,92.67
2022-12-24T11:45:30.958Z,92.71
2022-12-24T11:48:34.657Z,92.83
2022-12-24T11:51:38.593Z,92.50
2022-12-24T11:54:45.446Z,91.85
2022-12-24T11:58:06.080Z,92.06
2022-12-24T12:01:15.966Z,92.55
2022-12-24T12:04:22.126Z,93.78
2022-12-24T12:07:32.970Z,94.28
2022-12-24T12:10:39.353Z,93.58
2022-12-24T12:13:44.053Z,93.57
2022-12-24T12:17:00.958Z,94.05
2022-12-24T12:20:12.953Z,93.78
2022-12-24T12:23:37.369Z,94.11
2022-12-24T12:26:41.321Z,93.83
2022-12-24T12:29:47.736Z,93.41
2022-12-24T12:33:10.157Z,94.08
2022-12-24T12:36:14.410Z,94.75
2022-12-24T12:39:17.849Z,94.52
2022-12-24T12:42:38.215Z,94.65
2022-12-24T12:45:53.419Z,94.60
2022-12-24T12:49:09.015Z,92.95
2022-12-24T12:52:23.635Z,93.51
2022-12-24T12:55:34.870Z,94.17
2022-12-24T12:58:42.068Z,94.20
2022-12-24T13:01:47.720Z,95.31
2022-12-24T13:05:06.723Z,95.86
2022-12-24T13:08:41.527Z,95.58
2022-12-24T13:12:11.423Z,95.63
2022-12-24T13:15:44.229Z,97.16
2022-12-24T13:19:14.922Z,98.13
2022-12-24T13:22:18.734Z,98.47
2022-12-24T13:25:24.133Z,97.74
2022-12-24T13:28:26.482Z,97.50
2022-12-24T13:31:30.143Z,95.25
2022-12-24T13:34:36.179Z,94.13
2022-12-24T13:37:38.691Z,92.42
2022-12-24T13:40:41.185Z,93.17
2022-12-24T13:44:24.932Z,92.81
2022-12-24T13:47:32.243Z,91.73
2022-12-24T13:50:40.247Z,89.00
2022-12-24T13:53:44.844Z,88.80
2022-12-24T13:56:47.328Z,88.30
2022-12-24T14:00:17.298Z,88.37
2022-12-24T14:03:32.261Z,88.42
2022-12-24T14:06:42.173Z,90.07
2022-12-24T14:09:49.611Z,91.84
2022-12-24T14:12:53.103Z,91.98
2022-12-24T14:15:55.502Z,91.60
2022-12-24T14:19:01.007Z,91.98
2022-12-24T14:22:29.284Z,92.99
2022-12-24T14:25:32.003Z,93.55
2022-12-24T14:28:39.700Z,94.76
2022-12-24T14:31:53.743Z,95.22
2022-12-24T14:35:16.069Z,95.71
2022-12-24T14:38:18.905Z,96.04
2022-12-24T14:41:26.293Z,96.75
2022-12-24T14:44:41.987Z,96.86
2022-12-24T14:48:00.287Z,97.23
2022-12-24T14:51:10.309Z,98.04
2022-12-24T14:54:22.024Z,99.36
2022-12-24T14:57:26.428Z,99.45
2022-12-24T15:00:30.464Z,98.78
2022-12-24T15:03:35.809Z,99.45
2022-12-24T15:06:43.831Z,99.36
2022-12-24T15:09:46.231Z,99.23
2022-12-24T15:12:49.905Z,99.16
2022-12-24T15:15:54.632Z,99.67
2022-12-24T15:19:00.286Z,98.78
2022-12-24T15:22:04.450Z,99.20
2022-12-24T15:25:18.506Z,98.79
2022-12-24T15:28:23.546Z,98.79
2022-12-24T15:31:28.062Z,99.09
2022-12-24T15:34:42.892Z,99.64
2022-12-24T15:37:45.351Z,99.58
2022-12-24T15:40:51.124Z,99.95
2022-12-24T15:43:54.627Z,100.00
2022-12-24T15:47:02.776Z,100.00
2022-12-24T15:50:38.520Z,100.00
2022-12-24T15:53:44.855Z,100.00
2022-12-24T15:56:48.411Z,100.00
2022-12-24T15:59:53.636Z,100.00
2022-12-24T16:02:58.130Z,100.00
2022-12-24T16:06:08.989Z,100.00
2022-12-24T16:09:31.167Z,100.00
2022-12-24T16:12:34.981Z,100.00
2022-12-24T16:15:44.320Z,100.00
2022-12-24T16:18:55.651Z,100.00
2022-12-24T16:22:00.082Z,100.00
2022-12-24T16:25:22.995Z,100.00
2022-12-24T16:28:26.528Z,100.00
2022-12-24T16:31:34.277Z,100.00
2022-12-24T16:34:36.848Z,100.00
2022-12-24T16:37:39.607Z,100.00
2022-12-24T16:40:42.766Z,100.00
2022-12-24T16:43:51.088Z,100.00
2022-12-24T16:46:54.632Z,100.00
2022-12-24T16:49:58.755Z,100.00
2022-12-24T16:53:01.374Z,100.00
2022-12-24T16:56:03.986Z,100.00
2022-12-24T16:59:06.410Z,100.00
2022-12-24T17:02:14.804Z,100.00
2022-12-24T17:05:17.962Z,100.00
2022-12-24T17:08:20.407Z,100.00
2022-12-24T17:11:24.526Z,100.00
2022-12-24T17:14:26.923Z,100.00
2022-12-24T17:17:30.313Z,100.00
2022-12-24T17:20:32.772Z,100.00
2022-12-24T17:23:35.310Z,100.00
2022-12-24T17:26:38.288Z,100.00
2022-12-24T17:29:40.990Z,100.00
2022-12-24T17:32:43.601Z,100.00
2022-12-24T17:35:48.441Z,100.00
2022-12-24T17:38:50.940Z,100.00
2022-12-24T17:41:53.513Z,100.00
2022-12-24T17:44:55.977Z,100.00
2022-12-24T17:47:58.457Z,100.00
2022-12-24T17:51:11.258Z,100.00
2022-12-24T17:54:13.967Z,100.00
2022-12-24T17:57:16.441Z,100.00
2022-12-24T18:00:19.229Z,100.00
2022-12-24T18:03:21.794Z,100.00
2022-12-24T18:06:24.246Z,100.00
2022-12-24T18:09:26.829Z,100.00
2022-12-24T18:12:29.278Z,100.00
2022-12-24T18:15:34.733Z,100.00
2022-12-24T18:18:37.278Z,100.00
2022-12-24T18:21:40.596Z,100.00
2022-12-24T18:24:43.186Z,100.00
2022-12-24T18:27:45.809Z,100.00
2022-12-24T18:31:04.635Z,100.00
2022-12-24T18:34:09.741Z,100.00
2022-12-24T18:37:12.222Z,100.00
2022-12-24T18:40:15.118Z,100.00
2022-12-24T18:43:17.610Z,100.00
2022-12-24T18:46:23.525Z,100.00
2022-12-24T18:49:26.049Z,100.00
2022-12-24T18:52:32.216Z,100.00
2022-12-24T18:55:36.411Z,100.00
2022-12-24T18:58:41.133Z,100.00
2022-12-24T19:01:44.098Z,100.00
2022-12-24T19:04:46.703Z,100.00
2022-12-24T19:07:49.192Z,100.00
2022-12-24T19:10:53.643Z,100.00
2022-12-24T19:13:58.118Z,100.00
2022-12-24T19:17:00.820Z,100.00
2022-12-24T19:20:03.451Z,100.00
2022-12-24T19:23:07.121Z,100.00
2022-12-24T19:26:11.028Z,100.00
2022-12-24T19:29:13.605Z,100.00
2022-12-24T19:32:16.635Z,100.00
2022-12-24T19:35:19.122Z,100.00
2022-12-24T19:38:21.753Z,100.00
2022-12-24T19:41:27.101Z,100.00
2022-12-24T19:44:29.616Z,100.00
2022-12-24T19:47:32.061Z,100.00
2022-12-24T19:50:34.587Z,100.00
2022-12-24T19:53:37.374Z,100.00
2022-12-24T19:56:40.099Z,100.00
2022-12-24T19:59:42.591Z,100.00
2022-12-24T20:02:45.110Z,100.00
2022-12-24T20:05:47.892Z,100.00
2022-12-24T20:08:50.524Z,100.00
2022-12-24T20:11:52.899Z,100.00
2022-12-24T20:14:56.713Z,100.00
2022-12-24T20:17:59.609Z,100.00
2022-12-24T20:21:04.347Z,100.00
2022-12-24T20:24:07.226Z,100.00
2022-12-24T20:27:09.817Z,100.00
2022-12-24T20:30:12.666Z,100.00
2022-12-24T20:33:15.166Z,100.00
2022-12-24T20:36:19.690Z,100.00
2022-12-24T20:39:22.146Z,100.00
2022-12-24T20:42:24.684Z,100.00
2022-12-24T20:45:27.161Z,100.00
2022-12-24T20:48:30.047Z,99.92
2022-12-24T20:51:32.948Z,100.00
2022-12-24T20:54:35.428Z,98.95
2022-12-24T20:57:37.794Z,98.09
2022-12-24T21:00:40.993Z,98.46
2022-12-24T21:03:43.576Z,98.79
2022-12-24T21:06:46.238Z,98.75
2022-12-24T21:09:48.804Z,98.72
2022-12-24T21:13:00.500Z,98.67
2022-12-24T21:16:02.972Z,98.76
2022-12-24T21:19:06.476Z,98.50
2022-12-24T21:22:08.894Z,98.79
2022-12-24T21:25:12.213Z,98.36
2022-12-24T21:28:17.623Z,98.07
2022-12-24T21:31:20.732Z,97.00
2022-12-24T21:34:23.432Z,96.80
2022-12-24T21:37:25.913Z,97.71
2022-12-24T21:40:28.446Z,98.57
2022-12-24T21:43:32.092Z,97.28
2022-12-24T21:46:34.568Z,97.28
2022-12-24T21:49:56.117Z,97.65
2022-12-24T21:53:18.748Z,97.99
2022-12-24T21:56:21.990Z,99.46
2022-12-24T21:59:27.064Z,100.00
2022-12-24T22:02:30.271Z,100.00
2022-12-24T22:05:34.158Z,100.00
2022-12-24T22:08:55.151Z,100.00
2022-12-24T22:11:57.563Z,100.00
2022-12-24T22:15:00.042Z,98.09
2022-12-24T22:18:02.825Z,97.74
2022-12-24T22:21:05.472Z,96.48
2022-12-24T22:24:08.465Z,96.22
2022-12-24T22:27:10.943Z,96.35
2022-12-24T22:30:13.582Z,96.18
2022-12-24T22:33:16.325Z,96.26
2022-12-24T22:36:18.800Z,96.77
2022-12-24T22:39:21.209Z,97.37
2022-12-24T22:42:23.656Z,98.23
2022-12-24T22:45:26.270Z,99.07
2022-12-24T22:48:28.712Z,99.46
2022-12-24T22:51:31.319Z,99.70
2022-12-24T22:54:33.966Z,100.00
2022-12-24T22:57:36.537Z,100.00
2022-12-24T23:00:42.068Z,100.00
2022-12-24T23:03:44.717Z,100.00
2022-12-24T23:06:47.369Z,100.00
2022-12-24T23:09:49.944Z,100.00
2022-12-24T23:13:14.881Z,100.00
2022-12-24T23:16:18.046Z,100.00
2022-12-24T23:19:20.697Z,100.00
2022-12-24T23:22:23.216Z,100.00
2022-12-24T23:25:25.683Z,100.00
2022-12-24T23:28:28.486Z,100.00
2022-12-24T23:31:31.028Z,100.00
2022-12-24T23:34:33.635Z,100.00
2022-12-24T23:37:36.107Z,100.00
2022-12-24T23:40:41.857Z,100.00
2022-12-24T23:43:44.649Z,100.00
2022-12-24T23:46:47.298Z,100.00
2022-12-24T23:49:50.534Z,100.00
2022-12-24T23:52:53.247Z,100.00
2022-12-24T23:55:55.689Z,100.00
2022-12-24T23:58:58.273Z,100.00
